Time;durP1;ratioP1;P1;durP2;ratioP2;P2;SDS_P1;SDS_P2;PMS_P1;PMS_P2;Temp;Humidity;BMP_temperature;BMP_pressure;BME280_temperature;BME280_humidity;BME280_pressure;Samples;Min_cycle;Max_cycle;Signal;HPM_P1;HPM_P2
2024/01/26 00:00:49;;;;;;;3.55;1.95;;;11.70;99.90;;;;;;5052135;28;20189;-64
2024/01/26 00:03:17;;;;;;;3.97;2.03;;;11.70;99.90;;;;;;5051576;28;20188;-64
2024/01/26 00:05:45;;;;;;;4.82;2.38;;;11.70;99.90;;;;;;5046799;28;20223;-64
2024/01/26 00:08:14;;;;;;;3.88;1.95;;;11.60;99.90;;;;;;5048990;28;20226;-66
2024/01/26 00:10:42;;;;;;;3.92;2.22;;;11.60;99.90;;;;;;5053805;28;20243;-62
2024/01/26 00:13:10;;;;;;;3.35;2.10;;;11.60;99.90;;;;;;5051228;28;20252;-64
2024/01/26 00:15:36;;;;;;;2.95;1.75;;;11.60;99.90;;;;;;5047638;28;20182;-64
2024/01/26 00:18:04;;;;;;;3.90;1.92;;;11.60;99.90;;;;;;5053375;28;20207;-64
2024/01/26 00:20:30;;;;;;;2.58;1.90;;;11.50;99.90;;;;;;5052716;28;20177;-63
2024/01/26 00:22:56;;;;;;;3.50;2.00;;;11.50;99.90;;;;;;5049189;28;20289;-64
2024/01/26 00:25:22;;;;;;;2.65;1.98;;;11.50;99.90;;;;;;5053193;28;20256;-64
2024/01/26 00:27:48;;;;;;;2.17;1.60;;;11.50;99.90;;;;;;5051561;28;20216;-64
2024/01/26 00:30:14;;;;;;;2.85;2.00;;;11.40;99.90;;;;;;5055850;28;20209;-64
2024/01/26 00:32:44;;;;;;;3.22;1.90;;;11.50;99.90;;;;;;5046661;28;20266;-64
2024/01/26 00:35:12;;;;;;;2.75;1.70;;;11.50;99.90;;;;;;5051331;28;20196;-64
2024/01/26 00:37:38;;;;;;;2.75;2.00;;;11.50;99.90;;;;;;5045883;28;20170;-65
2024/01/26 00:40:04;;;;;;;2.05;1.70;;;11.50;99.90;;;;;;5043190;28;20201;-64
2024/01/26 00:42:30;;;;;;;2.42;1.80;;;11.50;99.90;;;;;;5039713;28;20177;-65
2024/01/26 00:44:56;;;;;;;2.53;1.85;;;11.50;99.90;;;;;;5047848;28;20185;-65
2024/01/26 00:47:21;;;;;;;2.33;1.73;;;11.50;99.90;;;;;;5044785;28;20185;-65
2024/01/26 00:49:47;;;;;;;3.55;1.73;;;11.50;99.90;;;;;;5057261;28;20211;-64
2024/01/26 00:52:13;;;;;;;1.90;1.35;;;11.50;99.90;;;;;;5050689;28;20194;-64
2024/01/26 00:54:38;;;;;;;3.20;1.70;;;11.50;99.90;;;;;;5054570;28;20343;-64
2024/01/26 00:57:04;;;;;;;1.75;1.60;;;11.50;99.90;;;;;;5055824;28;20228;-65
2024/01/26 00:59:32;;;;;;;3.63;2.00;;;11.50;99.90;;;;;;5053805;28;20192;-65
2024/01/26 01:01:58;;;;;;;3.03;1.63;;;11.50;99.90;;;;;;5054875;28;20192;-64
2024/01/26 01:04:24;;;;;;;2.72;1.60;;;11.50;99.90;;;;;;5048400;28;20215;-65
2024/01/26 01:06:54;;;;;;;2.28;1.70;;;11.50;99.90;;;;;;5051815;28;20185;-63
2024/01/26 01:09:22;;;;;;;2.92;1.63;;;11.60;99.90;;;;;;5052334;28;20200;-65
2024/01/26 01:11:47;;;;;;;1.98;1.42;;;11.60;99.90;;;;;;5056104;28;20220;-65
2024/01/26 01:14:13;;;;;;;3.15;1.67;;;11.60;99.90;;;;;;5055197;28;20192;-65
2024/01/26 01:16:39;;;;;;;2.00;1.60;;;11.50;99.90;;;;;;5051191;28;20178;-65
2024/01/26 01:19:07;;;;;;;2.75;1.50;;;11.50;99.90;;;;;;5055742;28;20219;-65
2024/01/26 01:21:32;;;;;;;2.38;1.40;;;11.60;99.90;;;;;;5049569;28;20190;-65
2024/01/26 01:23:58;;;;;;;2.17;1.50;;;11.60;99.90;;;;;;5055899;28;20298;-64
2024/01/26 01:26:27;;;;;;;2.03;1.50;;;11.60;99.90;;;;;;5056187;28;20173;-64
2024/01/26 01:28:55;;;;;;;1.95;1.42;;;11.60;99.90;;;;;;5051088;28;20174;-65
2024/01/26 01:31:23;;;;;;;2.25;1.58;;;11.60;99.90;;;;;;5054748;28;20213;-65
2024/01/26 01:33:51;;;;;;;2.60;1.50;;;11.60;99.90;;;;;;5053635;28;20165;-65
2024/01/26 01:36:21;;;;;;;1.83;1.42;;;11.60;99.90;;;;;;5055031;28;20174;-65
2024/01/26 01:38:49;;;;;;;2.90;1.45;;;11.70;99.90;;;;;;5055561;28;20165;-65
2024/01/26 01:41:15;;;;;;;2.25;1.52;;;11.70;99.90;;;;;;5053691;28;20179;-65
2024/01/26 01:43:43;;;;;;;2.17;1.55;;;11.70;99.90;;;;;;5055434;28;20180;-64
2024/01/26 01:46:11;;;;;;;2.30;1.60;;;11.70;99.90;;;;;;5049623;28;20451;-65
2024/01/26 01:48:39;;;;;;;2.00;1.70;;;11.70;99.90;;;;;;5054428;28;20173;-65
2024/01/26 01:51:05;;;;;;;1.88;1.50;;;11.70;99.90;;;;;;5055339;28;20350;-65
2024/01/26 01:53:30;;;;;;;3.20;1.65;;;11.80;99.90;;;;;;5040594;28;20196;-65
2024/01/26 01:55:59;;;;;;;1.92;1.52;;;11.80;99.90;;;;;;5036072;28;20173;-65
2024/01/26 01:58:25;;;;;;;3.00;1.80;;;11.80;99.90;;;;;;5042412;28;20193;-65
2024/01/26 02:00:51;;;;;;;2.58;1.75;;;11.80;99.90;;;;;;5053595;28;20173;-64
2024/01/26 02:03:18;;;;;;;2.40;1.73;;;11.80;99.90;;;;;;5042512;28;20184;-65
2024/01/26 02:05:44;;;;;;;2.60;1.85;;;11.80;99.90;;;;;;5047264;28;20169;-65
2024/01/26 02:08:12;;;;;;;2.60;1.90;;;11.80;99.90;;;;;;5055319;28;20178;-65
2024/01/26 02:10:37;;;;;;;2.72;1.80;;;11.80;99.90;;;;;;5053526;28;20185;-65
2024/01/26 02:13:03;;;;;;;2.88;2.00;;;11.90;99.90;;;;;;5053369;28;20201;-65
2024/01/26 02:15:29;;;;;;;2.75;2.10;;;11.80;99.90;;;;;;5054014;28;20424;-65
2024/01/26 02:17:54;;;;;;;2.58;2.00;;;11.80;99.90;;;;;;5042442;28;20177;-65
2024/01/26 02:20:20;;;;;;;2.97;2.17;;;11.80;99.90;;;;;;5050427;28;20181;-65
2024/01/26 02:22:46;;;;;;;3.47;2.30;;;11.80;99.90;;;;;;5052239;28;20227;-65
2024/01/26 02:25:12;;;;;;;3.15;2.30;;;11.70;99.90;;;;;;5054885;28;20169;-65
2024/01/26 02:27:40;;;;;;;2.80;2.22;;;11.80;99.90;;;;;;5052852;28;20242;-65
2024/01/26 02:30:08;;;;;;;2.50;2.17;;;11.80;99.90;;;;;;5043243;28;20211;-65
2024/01/26 02:32:39;;;;;;;3.55;2.47;;;11.80;99.90;;;;;;5045840;28;20208;-65
2024/01/26 02:35:05;;;;;;;2.95;2.00;;;11.80;99.90;;;;;;5052431;28;20445;-66
2024/01/26 02:37:33;;;;;;;3.03;2.05;;;11.70;99.90;;;;;;5049797;28;20180;-66
2024/01/26 02:39:58;;;;;;;3.72;2.20;;;11.80;99.90;;;;;;5041827;28;20173;-66
2024/01/26 02:42:24;;;;;;;2.45;1.90;;;11.70;99.90;;;;;;5059469;28;20316;-65
2024/01/26 02:44:52;;;;;;;2.58;1.98;;;11.80;99.90;;;;;;5055244;28;20209;-64
2024/01/26 02:47:18;;;;;;;2.47;1.67;;;11.80;99.90;;;;;;5053447;28;20181;-65
2024/01/26 02:49:44;;;;;;;2.58;1.80;;;11.80;99.90;;;;;;5050337;28;20301;-65
2024/01/26 02:52:09;;;;;;;3.03;2.10;;;11.70;99.90;;;;;;5052174;28;20229;-66
2024/01/26 02:54:35;;;;;;;3.30;2.20;;;11.80;99.90;;;;;;5050679;28;20185;-65
2024/01/26 02:57:01;;;;;;;2.58;2.10;;;11.80;99.90;;;;;;5053730;28;20189;-65
2024/01/26 02:59:29;;;;;;;2.75;2.15;;;11.80;99.90;;;;;;5049874;28;20233;-65
2024/01/26 03:01:57;;;;;;;2.70;1.92;;;11.80;99.90;;;;;;5049127;28;20173;-65
2024/01/26 03:04:25;;;;;;;2.20;1.77;;;11.80;99.90;;;;;;5051576;28;20220;-65
2024/01/26 03:06:53;;;;;;;2.53;2.13;;;11.70;99.90;;;;;;5051214;28;20185;-65
2024/01/26 03:09:18;;;;;;;2.47;1.70;;;11.80;99.90;;;;;;5041544;28;20181;-65
2024/01/26 03:11:45;;;;;;;2.58;2.03;;;11.80;99.90;;;;;;5052983;28;20209;-65
2024/01/26 03:14:11;;;;;;;2.72;1.75;;;11.80;99.90;;;;;;5052795;28;20196;-64
2024/01/26 03:16:42;;;;;;;3.50;2.20;;;11.80;99.90;;;;;;5058519;28;20166;-64
2024/01/26 03:19:07;;;;;;;2.60;1.98;;;11.80;99.90;;;;;;5054300;28;20296;-65
2024/01/26 03:21:35;;;;;;;2.70;2.25;;;11.70;99.90;;;;;;5044070;28;20331;-65
2024/01/26 03:24:02;;;;;;;2.30;2.03;;;11.70;99.90;;;;;;5053662;28;20185;-64
2024/01/26 03:26:28;;;;;;;2.65;2.00;;;11.70;99.90;;;;;;5052665;28;20295;-65
2024/01/26 03:28:56;;;;;;;2.60;1.98;;;11.70;99.90;;;;;;5053458;28;20189;-65
2024/01/26 03:31:22;;;;;;;2.47;1.98;;;11.70;99.90;;;;;;5062568;28;20208;-66
2024/01/26 03:33:50;;;;;;;2.78;1.92;;;11.70;99.90;;;;;;5050533;28;20339;-65
2024/01/26 03:36:17;;;;;;;2.90;1.98;;;11.80;99.90;;;;;;5037989;28;20204;-65
2024/01/26 03:38:45;;;;;;;2.38;1.80;;;11.70;99.90;;;;;;5047784;28;20170;-65
2024/01/26 03:41:11;;;;;;;1.90;1.60;;;11.70;99.90;;;;;;5038446;28;20507;-65
2024/01/26 03:43:36;;;;;;;2.28;1.70;;;11.70;99.90;;;;;;5048679;28;20185;-65
2024/01/26 03:46:03;;;;;;;3.05;1.90;;;11.80;99.90;;;;;;5055578;28;20188;-65
2024/01/26 03:48:28;;;;;;;2.00;1.70;;;11.80;99.90;;;;;;5055391;28;20281;-66
2024/01/26 03:50:59;;;;;;;3.13;1.95;;;11.80;99.90;;;;;;5053851;28;20208;-65
2024/01/26 03:53:24;;;;;;;2.25;1.70;;;11.80;99.90;;;;;;5051682;28;20213;-64
2024/01/26 03:55:52;;;;;;;2.95;1.90;;;11.80;99.90;;;;;;5053858;28;20223;-65
2024/01/26 03:58:23;;;;;;;1.90;1.70;;;11.70;99.90;;;;;;5051757;28;20179;-65
2024/01/26 04:00:51;;;;;;;2.00;1.67;;;11.70;99.90;;;;;;5047109;28;20177;-65
2024/01/26 04:03:16;;;;;;;1.98;1.77;;;11.70;99.90;;;;;;5053984;28;20173;-64
2024/01/26 04:05:42;;;;;;;2.20;1.70;;;11.80;99.90;;;;;;5051200;28;20236;-65
2024/01/26 04:08:08;;;;;;;1.85;1.48;;;11.70;99.90;;;;;;5056893;28;20177;-65
2024/01/26 04:10:36;;;;;;;2.70;1.90;;;11.70;99.90;;;;;;5057664;28;20272;-65
2024/01/26 04:13:01;;;;;;;2.78;1.80;;;11.70;99.90;;;;;;5053085;28;20347;-65
2024/01/26 04:15:29;;;;;;;1.70;1.50;;;11.70;99.90;;;;;;5057574;28;20256;-65
2024/01/26 04:17:56;;;;;;;2.83;1.80;;;11.70;99.90;;;;;;5049988;28;20169;-65
2024/01/26 04:20:22;;;;;;;2.08;1.60;;;11.70;99.90;;;;;;5055698;28;20384;-65
2024/01/26 04:22:47;;;;;;;2.50;1.83;;;11.70;99.90;;;;;;5057450;28;20416;-65
2024/01/26 04:25:13;;;;;;;1.83;1.35;;;11.60;99.90;;;;;;5054204;28;20192;-65
2024/01/26 04:27:38;;;;;;;2.10;1.40;;;11.70;99.90;;;;;;5053474;28;20243;-65
2024/01/26 04:30:05;;;;;;;1.95;1.50;;;11.70;99.90;;;;;;5052604;28;20184;-66
2024/01/26 04:32:35;;;;;;;2.22;1.40;;;11.70;99.90;;;;;;5054450;28;20205;-66
2024/01/26 04:35:03;;;;;;;1.35;1.23;;;11.70;99.90;;;;;;5056741;28;20177;-65
2024/01/26 04:37:29;;;;;;;1.60;1.38;;;11.70;99.90;;;;;;5056533;28;20394;-65
2024/01/26 04:39:59;;;;;;;1.58;1.38;;;11.70;99.90;;;;;;5054174;28;20211;-65
2024/01/26 04:42:27;;;;;;;2.15;1.30;;;11.70;99.90;;;;;;5055581;28;20245;-67
2024/01/26 04:44:54;;;;;;;1.67;1.17;;;11.70;99.90;;;;;;5053222;28;20181;-67
2024/01/26 04:47:22;;;;;;;1.77;1.20;;;11.80;99.90;;;;;;5047410;28;20169;-67
2024/01/26 04:49:48;;;;;;;1.90;1.30;;;11.80;99.90;;;;;;5045236;28;20174;-65
2024/01/26 04:52:14;;;;;;;2.15;1.30;;;11.70;99.90;;;;;;5046965;28;20205;-67
2024/01/26 04:54:40;;;;;;;1.30;1.10;;;11.60;99.90;;;;;;5061565;28;20178;-67
2024/01/26 04:57:08;;;;;;;1.58;1.10;;;11.50;99.90;;;;;;5056290;28;20222;-67
2024/01/26 04:59:34;;;;;;;3.38;1.05;;;11.50;99.90;;;;;;5055651;28;20188;-68
2024/01/26 05:01:59;;;;;;;1.45;1.25;;;11.50;99.90;;;;;;5056795;28;20193;-67
2024/01/26 05:04:25;;;;;;;1.80;1.15;;;11.40;99.90;;;;;;5053353;28;20211;-67
2024/01/26 05:06:51;;;;;;;2.22;1.40;;;11.40;99.90;;;;;;5056868;28;20200;-67
2024/01/26 05:09:19;;;;;;;1.00;0.95;;;11.30;99.90;;;;;;5056565;28;20276;-67
2024/01/26 05:11:44;;;;;;;2.65;1.15;;;11.30;99.90;;;;;;5052470;28;20271;-68
2024/01/26 05:14:10;;;;;;;1.42;1.00;;;11.20;99.90;;;;;;5035850;28;20207;-68
2024/01/26 05:16:36;;;;;;;1.48;1.00;;;11.20;99.90;;;;;;5041463;28;20178;-67
2024/01/26 05:19:01;;;;;;;1.60;1.02;;;11.10;99.90;;;;;;5055023;28;20205;-66
2024/01/26 05:21:29;;;;;;;1.25;1.08;;;11.20;99.90;;;;;;5055773;28;20193;-67
2024/01/26 05:23:54;;;;;;;1.42;1.02;;;11.10;99.90;;;;;;5053902;28;20177;-67
2024/01/26 05:26:22;;;;;;;1.55;1.10;;;11.10;99.90;;;;;;5053262;28;20215;-68
2024/01/26 05:28:50;;;;;;;1.38;0.90;;;11.10;99.90;;;;;;5050668;28;20189;-68
2024/01/26 05:31:16;;;;;;;1.33;1.00;;;11.10;99.90;;;;;;5055583;28;20190;-68
2024/01/26 05:33:41;;;;;;;1.05;0.80;;;11.00;99.90;;;;;;5051948;28;20196;-67
2024/01/26 05:36:07;;;;;;;0.90;0.80;;;11.10;99.90;;;;;;5055818;28;20181;-69
2024/01/26 05:38:33;;;;;;;1.13;0.80;;;11.10;99.90;;;;;;5049070;28;20214;-66
2024/01/26 05:41:03;;;;;;;0.70;0.70;;;11.10;99.90;;;;;;5056394;28;20199;-68
2024/01/26 05:43:31;;;;;;;2.83;0.88;;;11.10;99.90;;;;;;5040755;28;20221;-68
2024/01/26 05:45:57;;;;;;;0.90;0.80;;;11.10;99.90;;;;;;5055852;28;20173;-67
2024/01/26 05:48:24;;;;;;;1.20;0.85;;;11.20;99.90;;;;;;5057219;28;20206;-68
2024/01/26 05:50:50;;;;;;;1.40;1.10;;;11.20;99.90;;;;;;5064159;28;20173;-67
2024/01/26 05:53:16;;;;;;;1.30;1.10;;;11.20;99.90;;;;;;5051950;28;20223;-68
2024/01/26 05:55:41;;;;;;;2.38;1.27;;;11.20;99.90;;;;;;5053080;28;20207;-69
2024/01/26 05:58:09;;;;;;;1.63;1.20;;;11.20;99.90;;;;;;5055544;28;20232;-65
2024/01/26 06:00:35;;;;;;;2.08;1.30;;;11.20;99.90;;;;;;5047474;28;20174;-68
2024/01/26 06:03:01;;;;;;;1.55;1.35;;;11.20;99.90;;;;;;5042412;28;20203;-69
2024/01/26 06:05:28;;;;;;;2.22;1.60;;;11.20;99.90;;;;;;5055411;28;20183;-68
2024/01/26 06:07:56;;;;;;;1.98;1.70;;;11.20;99.90;;;;;;5045214;28;20177;-67
2024/01/26 06:10:26;;;;;;;1.92;1.70;;;11.30;99.90;;;;;;5048071;28;20222;-68
2024/01/26 06:12:54;;;;;;;2.83;1.75;;;11.30;99.90;;;;;;5049882;28;20260;-67
2024/01/26 06:15:20;;;;;;;2.10;1.90;;;11.20;99.90;;;;;;5049621;28;20175;-68
2024/01/26 06:17:47;;;;;;;2.28;1.80;;;11.20;99.90;;;;;;5055375;28;20197;-68
2024/01/26 06:20:13;;;;;;;3.97;1.55;;;11.20;99.90;;;;;;5053956;28;20178;-68
2024/01/26 06:22:38;;;;;;;2.35;1.88;;;11.30;99.90;;;;;;5037195;28;20373;-68
2024/01/26 06:25:06;;;;;;;2.45;1.90;;;11.30;99.90;;;;;;5052442;28;20232;-70
2024/01/26 06:27:37;;;;;;;2.22;1.65;;;11.20;99.90;;;;;;5054280;28;20196;-67
2024/01/26 06:30:03;;;;;;;2.00;1.70;;;11.30;99.90;;;;;;5055327;28;20180;-68
2024/01/26 06:32:29;;;;;;;2.00;1.77;;;11.30;99.90;;;;;;5055218;28;20193;-68
2024/01/26 06:34:57;;;;;;;1.73;1.50;;;11.30;99.90;;;;;;5054830;28;20176;-68
2024/01/26 06:37:22;;;;;;;1.85;1.50;;;11.30;99.90;;;;;;5054698;28;20177;-68
2024/01/26 06:39:55;;;;;;;2.20;1.80;;;11.30;99.90;;;;;;5054913;28;20192;-67
2024/01/26 06:42:25;;;;;;;2.00;1.40;;;11.40;99.90;;;;;;5054573;28;20211;-68
2024/01/26 06:44:56;;;;;;;2.22;1.30;;;11.40;99.90;;;;;;5054117;28;20161;-68
2024/01/26 06:47:22;;;;;;;1.20;1.10;;;11.40;99.90;;;;;;5053931;28;20215;-68
2024/01/26 06:49:50;;;;;;;1.30;0.93;;;11.50;99.90;;;;;;5054418;28;20169;-68
2024/01/26 06:52:17;;;;;;;1.67;1.27;;;11.50;99.90;;;;;;5055355;28;20197;-68
2024/01/26 06:54:43;;;;;;;1.10;1.00;;;11.60;99.90;;;;;;5053868;28;20197;-68
2024/01/26 06:57:09;;;;;;;1.00;0.90;;;11.60;99.90;;;;;;5054810;28;20260;-67
2024/01/26 06:59:37;;;;;;;1.38;1.00;;;11.70;99.90;;;;;;5054458;28;20191;-68
2024/01/26 07:02:04;;;;;;;1.92;1.50;;;11.80;99.90;;;;;;5054528;28;20215;-66
2024/01/26 07:04:30;;;;;;;1.40;1.15;;;11.80;99.90;;;;;;5054782;28;20201;-66
2024/01/26 07:06:58;;;;;;;1.20;0.98;;;11.90;99.90;;;;;;5050825;28;20216;-68
2024/01/26 07:09:26;;;;;;;1.77;1.10;;;12.00;99.90;;;;;;5034505;28;20206;-68
2024/01/26 07:11:54;;;;;;;0.95;0.85;;;12.10;99.90;;;;;;5060138;22;20302;-67
2024/01/26 07:14:19;;;;;;;1.42;1.10;;;12.20;99.90;;;;;;4994394;28;20175;-68
2024/01/26 07:16:49;;;;;;;1.17;1.02;;;12.40;99.90;;;;;;4994896;28;20313;-69
2024/01/26 07:19:15;;;;;;;1.95;1.55;;;12.40;99.90;;;;;;5006040;28;20174;-67
2024/01/26 07:21:40;;;;;;;1.20;1.00;;;12.40;99.90;;;;;;5014051;28;20185;-68
2024/01/26 07:24:06;;;;;;;1.42;1.08;;;12.50;99.90;;;;;;5006427;28;20319;-68
2024/01/26 07:26:32;;;;;;;1.30;1.00;;;12.50;99.90;;;;;;5017719;28;20190;-68
2024/01/26 07:28:57;;;;;;;1.10;1.00;;;12.60;99.90;;;;;;5014515;28;20265;-68
2024/01/26 07:31:23;;;;;;;1.20;1.00;;;12.60;99.90;;;;;;5014264;28;20206;-68
2024/01/26 07:33:49;;;;;;;2.60;1.40;;;12.60;99.90;;;;;;5010626;28;20210;-69
2024/01/26 07:36:17;;;;;;;1.63;1.38;;;12.60;99.90;;;;;;5012650;28;20274;-67
2024/01/26 07:38:45;;;;;;;2.17;1.20;;;12.60;99.90;;;;;;5008295;28;20171;-67
2024/01/26 07:41:13;;;;;;;1.83;1.40;;;12.60;99.90;;;;;;5005849;28;20175;-67
2024/01/26 07:43:38;;;;;;;1.70;1.35;;;12.60;99.90;;;;;;5014055;28;20175;-67
2024/01/26 07:46:07;;;;;;;1.42;1.10;;;12.50;99.90;;;;;;5021763;28;20187;-67
2024/01/26 07:48:32;;;;;;;1.77;1.35;;;12.50;99.90;;;;;;5013690;28;20230;-68
2024/01/26 07:51:00;;;;;;;1.40;1.15;;;12.60;99.90;;;;;;5013600;28;20245;-70
2024/01/26 07:53:28;;;;;;;1.50;1.08;;;12.60;99.90;;;;;;5014096;28;20170;-67
2024/01/26 07:55:54;;;;;;;1.98;1.52;;;12.50;99.90;;;;;;5014215;28;20194;-67
2024/01/26 07:58:27;;;;;;;2.72;1.40;;;12.50;99.90;;;;;;5014284;28;20326;-67
2024/01/26 08:00:55;;;;;;;2.92;1.40;;;12.50;99.90;;;;;;5014256;28;20197;-67
2024/01/26 08:03:23;;;;;;;1.80;1.33;;;12.50;99.90;;;;;;5010511;28;20187;-68
2024/01/26 08:05:51;;;;;;;1.70;1.42;;;12.50;99.90;;;;;;4994631;28;20232;-68
2024/01/26 08:08:16;;;;;;;3.03;1.70;;;12.50;99.90;;;;;;4994917;28;20191;-69
2024/01/26 08:10:42;;;;;;;2.40;1.50;;;12.60;99.90;;;;;;4996078;28;20195;-68
2024/01/26 08:13:10;;;;;;;1.60;1.13;;;12.60;99.90;;;;;;4994618;28;20203;-70
2024/01/26 08:15:38;;;;;;;1.40;1.30;;;12.60;99.90;;;;;;5008989;28;20205;-68
2024/01/26 08:18:06;;;;;;;1.90;1.20;;;12.70;99.90;;;;;;5014193;28;20214;-69
2024/01/26 08:20:32;;;;;;;1.55;1.00;;;12.70;99.90;;;;;;5013483;28;20194;-68
2024/01/26 08:22:57;;;;;;;1.10;1.00;;;12.80;99.90;;;;;;5003010;28;20203;-68
2024/01/26 08:25:25;;;;;;;3.00;1.00;;;12.80;99.90;;;;;;4994389;28;20180;-68
2024/01/26 08:27:53;;;;;;;1.10;1.00;;;12.80;99.90;;;;;;4994718;28;20207;-67
2024/01/26 08:30:21;;;;;;;1.48;0.85;;;12.80;99.90;;;;;;5026532;28;20206;-67
2024/01/26 08:32:49;;;;;;;1.00;0.88;;;12.90;99.90;;;;;;4995369;28;20384;-68
2024/01/26 08:35:18;;;;;;;0.80;0.63;;;12.90;99.90;;;;;;4994109;28;20183;-67
2024/01/26 08:37:45;;;;;;;2.67;0.70;;;12.90;99.90;;;;;;5003910;28;20179;-70
2024/01/26 08:40:11;;;;;;;1.17;0.80;;;12.90;99.90;;;;;;5008310;28;20422;-68
2024/01/26 08:42:36;;;;;;;0.63;0.60;;;12.80;99.90;;;;;;5013841;28;20174;-67
2024/01/26 08:45:03;;;;;;;0.80;0.50;;;12.80;99.90;;;;;;5013889;28;20229;-67
2024/01/26 08:47:31;;;;;;;1.15;0.70;;;12.70;99.90;;;;;;5013626;28;20178;-67
2024/01/26 08:49:59;;;;;;;0.98;0.70;;;12.60;99.90;;;;;;5015716;28;20179;-68
2024/01/26 08:52:25;;;;;;;1.13;0.47;;;12.60;99.90;;;;;;5011187;28;20231;-67
2024/01/26 08:54:50;;;;;;;1.08;0.47;;;12.60;99.90;;;;;;5016796;28;20255;-66
2024/01/26 08:57:16;;;;;;;0.60;0.50;;;12.50;99.90;;;;;;5015089;28;20179;-66
2024/01/26 08:59:44;;;;;;;0.90;0.40;;;12.50;99.90;;;;;;5017122;28;20182;-66
2024/01/26 09:02:09;;;;;;;0.30;0.30;;;12.50;99.90;;;;;;5017257;28;20195;-67
2024/01/26 09:04:37;;;;;;;0.88;0.47;;;12.50;99.90;;;;;;5016920;28;20324;-66
2024/01/26 09:07:05;;;;;;;1.67;0.60;;;12.50;99.90;;;;;;5013558;28;20203;-68
2024/01/26 09:09:31;;;;;;;0.90;0.43;;;12.50;99.90;;;;;;5011612;28;20211;-69
2024/01/26 09:11:56;;;;;;;0.43;0.40;;;12.60;99.90;;;;;;5016851;28;20337;-67
2024/01/26 09:14:22;;;;;;;0.52;0.40;;;12.50;99.90;;;;;;5017027;28;20266;-68
2024/01/26 09:16:51;;;;;;;0.52;0.20;;;12.60;99.90;;;;;;5017866;28;20185;-67
2024/01/26 09:19:17;;;;;;;0.60;0.45;;;12.50;99.90;;;;;;5014072;28;20190;-68
2024/01/26 09:21:43;;;;;;;0.60;0.50;;;12.60;99.90;;;;;;4997641;28;20175;-68
2024/01/26 09:24:09;;;;;;;2.03;0.63;;;12.60;99.90;;;;;;4997433;28;20266;-69
2024/01/26 09:26:35;;;;;;;0.68;0.50;;;12.60;99.90;;;;;;4997202;28;20180;-68
2024/01/26 09:29:03;;;;;;;0.85;0.57;;;12.70;99.90;;;;;;5013249;28;20201;-70
2024/01/26 09:31:29;;;;;;;1.00;0.50;;;12.70;99.90;;;;;;5016915;28;20289;-67
2024/01/26 09:33:54;;;;;;;0.85;0.50;;;12.80;99.90;;;;;;5013000;28;20230;-68
2024/01/26 09:36:22;;;;;;;0.32;0.30;;;12.80;99.90;;;;;;5013680;28;20179;-69
2024/01/26 09:38:49;;;;;;;1.17;0.50;;;12.90;99.90;;;;;;5014298;28;20214;-67
2024/01/26 09:41:17;;;;;;;0.73;0.38;;;12.90;99.90;;;;;;5016171;28;20251;-67
2024/01/26 09:43:43;;;;;;;0.38;0.32;;;13.00;99.90;;;;;;5016729;28;20219;-68
2024/01/26 09:46:11;;;;;;;0.57;0.35;;;13.00;99.90;;;;;;5016238;28;20313;-70
2024/01/26 09:48:44;;;;;;;1.33;0.40;;;13.10;99.90;;;;;;5016341;28;20214;-69
2024/01/26 09:51:10;;;;;;;0.90;0.40;;;13.10;99.90;;;;;;5016359;28;20159;-71
2024/01/26 09:53:39;;;;;;;1.33;0.30;;;13.10;99.90;;;;;;4999454;28;20202;-69
2024/01/26 09:56:08;;;;;;;1.00;0.50;;;13.20;99.90;;;;;;5001451;28;20240;-70
2024/01/26 09:58:36;;;;;;;0.57;0.40;;;13.10;99.90;;;;;;5013047;28;20262;-70
2024/01/26 10:01:09;;;;;;;0.50;0.40;;;13.20;99.90;;;;;;4996360;28;20194;-70
2024/01/26 10:03:37;;;;;;;0.93;0.65;;;13.30;99.90;;;;;;5003030;28;20234;-70
2024/01/26 10:06:06;;;;;;;1.58;0.50;;;13.30;99.90;;;;;;5015900;28;20175;-70
2024/01/26 10:08:44;;;;;;;0.68;0.40;;;13.40;99.90;;;;;;5015175;28;20178;-69
2024/01/26 10:11:10;;;;;;;0.57;0.20;;;13.40;99.90;;;;;;5002290;28;20199;-70
2024/01/26 10:13:39;;;;;;;1.20;0.50;;;13.40;99.90;;;;;;5008957;28;20184;-70
2024/01/26 10:16:11;;;;;;;0.60;0.32;;;13.50;99.90;;;;;;5015971;28;20183;-69
2024/01/26 10:18:42;;;;;;;0.47;0.40;;;13.50;99.90;;;;;;5015316;28;20185;-71
2024/01/26 10:21:08;;;;;;;1.00;0.60;;;13.50;99.90;;;;;;5015542;28;20214;-68
2024/01/26 10:23:33;;;;;;;1.58;0.70;;;13.60;99.90;;;;;;5015985;28;20190;-69
2024/01/26 10:25:59;;;;;;;0.90;0.40;;;13.60;99.90;;;;;;5015868;28;20186;-69
2024/01/26 10:28:25;;;;;;;0.63;0.40;;;13.60;99.90;;;;;;5015634;28;20171;-70
2024/01/26 10:30:50;;;;;;;0.57;0.38;;;13.70;99.90;;;;;;5015882;28;20179;-69
2024/01/26 10:33:19;;;;;;;0.40;0.30;;;13.70;99.90;;;;;;5015195;28;20256;-69
2024/01/26 10:35:46;;;;;;;0.60;0.40;;;13.80;99.90;;;;;;5014978;28;20174;-69
2024/01/26 10:38:14;;;;;;;0.52;0.30;;;13.90;99.90;;;;;;5015073;28;20180;-70
2024/01/26 10:40:48;;;;;;;0.32;0.30;;;13.90;99.90;;;;;;5015390;28;20170;-70
2024/01/26 10:43:17;;;;;;;0.45;0.30;;;14.00;99.90;;;;;;5015557;28;20310;-70
2024/01/26 10:45:48;;;;;;;0.93;0.55;;;14.00;99.90;;;;;;5001925;28;20176;-69
2024/01/26 10:48:15;;;;;;;3.97;0.40;;;14.00;99.90;;;;;;4998847;28;20167;-71
2024/01/26 10:50:41;;;;;;;0.70;0.50;;;14.10;99.90;;;;;;5015164;28;20202;-68
2024/01/26 10:53:07;;;;;;;0.43;0.30;;;14.10;99.90;;;;;;5014950;28;20198;-69
2024/01/26 10:55:40;;;;;;;0.90;0.40;;;14.10;99.90;;;;;;5015499;28;20221;-68
2024/01/26 10:58:08;;;;;;;0.25;0.25;;;14.20;99.90;;;;;;5015366;28;20442;-69
2024/01/26 11:00:34;;;;;;;0.95;0.60;;;14.20;99.90;;;;;;5015023;28;20229;-69
2024/01/26 11:03:02;;;;;;;1.48;0.47;;;14.20;99.90;;;;;;5015428;28;20210;-69
2024/01/26 11:05:30;;;;;;;0.73;0.43;;;14.30;99.90;;;;;;5015027;28;20198;-69
2024/01/26 11:07:59;;;;;;;0.40;0.32;;;14.30;99.90;;;;;;5014999;28;20427;-70
2024/01/26 11:10:28;;;;;;;0.98;0.50;;;14.30;99.90;;;;;;5012702;28;20183;-69
2024/01/26 11:13:06;;;;;;;1.02;0.40;;;14.30;99.90;;;;;;5010632;28;20210;-70
2024/01/26 11:15:34;;;;;;;0.70;0.55;;;14.40;99.90;;;;;;4995533;28;20178;-66
2024/01/26 11:18:01;;;;;;;0.52;0.40;;;14.40;99.90;;;;;;4995371;28;20180;-70
2024/01/26 11:20:31;;;;;;;0.70;0.45;;;14.30;99.90;;;;;;5003965;28;20202;-69
2024/01/26 11:23:07;;;;;;;0.80;0.40;;;14.30;99.90;;;;;;5013108;28;20213;-68
2024/01/26 11:25:34;;;;;;;1.40;0.55;;;14.20;99.90;;;;;;5011329;28;20178;-67
2024/01/26 11:28:01;;;;;;;0.52;0.50;;;14.10;99.90;;;;;;5013909;28;20214;-68
2024/01/26 11:30:30;;;;;;;0.52;0.43;;;13.90;99.90;;;;;;5015878;28;20178;-71
2024/01/26 11:33:02;;;;;;;0.98;0.40;;;13.80;99.90;;;;;;5016131;28;20202;-70
2024/01/26 11:35:27;;;;;;;0.70;0.57;;;13.70;99.90;;;;;;5018052;28;20195;-76
2024/01/26 11:37:56;;;;;;;1.27;0.77;;;13.60;99.90;;;;;;5012173;28;20175;-72
2024/01/26 11:40:25;;;;;;;1.75;0.75;;;13.50;99.90;;;;;;4995615;28;20191;-70
2024/01/26 11:42:54;;;;;;;2.85;1.00;;;13.40;99.90;;;;;;4996970;28;20207;-70
2024/01/26 11:45:43;;;;;;;2.70;0.90;;;13.10;99.90;;;;;;5013998;28;20174;-69
2024/01/26 11:48:12;;;;;;;2.15;0.77;;;12.90;99.90;;;;;;4995098;28;20164;-69
2024/01/26 11:50:40;;;;;;;3.30;0.85;;;12.70;99.90;;;;;;4994557;28;20203;-69
2024/01/26 11:53:08;;;;;;;1.38;0.80;;;12.50;99.90;;;;;;5008652;28;20222;-66
2024/01/26 11:55:33;;;;;;;3.78;0.88;;;12.30;99.90;;;;;;4994809;28;20257;-67
2024/01/26 11:57:59;;;;;;;4.30;1.05;;;12.20;99.90;;;;;;5002311;28;20253;-68
2024/01/26 12:00:28;;;;;;;2.78;0.90;;;12.10;99.90;;;;;;5014307;28;20171;-66
2024/01/26 12:02:54;;;;;;;2.72;0.90;;;12.00;99.90;;;;;;5014447;28;20179;-67
2024/01/26 12:05:19;;;;;;;2.80;1.23;;;12.00;99.90;;;;;;5013358;28;20217;-67
2024/01/26 12:07:45;;;;;;;2.40;1.20;;;12.00;99.90;;;;;;5014095;28;20175;-66
2024/01/26 12:10:14;;;;;;;6.10;1.80;;;12.00;99.90;;;;;;5010146;28;20210;-67
2024/01/26 12:12:47;;;;;;;3.72;1.30;;;12.10;99.90;;;;;;4994226;28;20210;-67
2024/01/26 12:15:13;;;;;;;5.65;1.40;;;12.10;99.90;;;;;;4994651;28;20167;-63
2024/01/26 12:17:41;;;;;;;4.43;1.25;;;12.20;99.90;;;;;;4999554;28;20182;-65
2024/01/26 12:20:09;;;;;;;4.20;1.50;;;12.20;99.90;;;;;;5014051;28;20175;-65
2024/01/26 12:22:36;;;;;;;5.05;1.30;;;12.30;99.90;;;;;;5005145;28;20183;-66
2024/01/26 12:25:07;;;;;;;3.28;0.93;;;12.30;99.90;;;;;;5017424;28;20171;-67
2024/01/26 12:27:35;;;;;;;2.47;1.10;;;12.30;99.90;;;;;;5017573;28;20179;-67
2024/01/26 12:30:03;;;;;;;3.78;1.20;;;12.40;99.90;;;;;;5001776;28;20269;-67
2024/01/26 12:32:29;;;;;;;6.90;1.25;;;12.40;99.90;;;;;;5012901;28;20289;-67
2024/01/26 12:34:55;;;;;;;8.05;1.45;;;12.40;99.90;;;;;;5007471;28;20170;-68
2024/01/26 12:37:21;;;;;;;3.50;1.20;;;12.40;99.90;;;;;;5017881;28;20248;-67
2024/01/26 12:39:47;;;;;;;3.25;1.00;;;12.40;99.90;;;;;;5011895;28;20178;-67
2024/01/26 12:42:13;;;;;;;2.47;0.85;;;12.40;99.90;;;;;;5010066;28;20244;-66
2024/01/26 12:44:39;;;;;;;3.75;1.00;;;12.50;99.90;;;;;;5017382;28;20190;-67
2024/01/26 12:47:06;;;;;;;3.30;1.02;;;12.60;99.90;;;;;;5017656;28;20265;-66